Time;durP1;ratioP1;P1;durP2;ratioP2;P2;SDS_P1;SDS_P2;PMS_P1;PMS_P2;Temp;Humidity;BMP_temperature;BMP_pressure;BME280_temperature;BME280_humidity;BME280_pressure;Samples;Min_cycle;Max_cycle;Signal;HPM_P1;HPM_P2
2022/03/13 00:04:57;;;;;;;;;;;;;;;-1.68;88.51;98560.69;10435401;28;20039;-79
2022/03/13 00:09:58;;;;;;;;;;;;;;;-1.68;93.06;98563.34;10450651;28;19956;-79
2022/03/13 00:15:03;;;;;;;;;;;;;;;-1.78;96.94;98555.25;10410673;28;19929;-80
2022/03/13 00:20:07;;;;;;;;;;;;;;;-1.86;97.63;98558.28;10436733;28;19932;-79
2022/03/13 00:25:08;;;;;;;;;;;;;;;-1.94;96.88;98559.44;10421709;28;19925;-80
2022/03/13 00:30:15;;;;;;;;;;;;;;;-1.96;97.95;98558.09;10429083;28;19939;-80
2022/03/13 00:35:15;;;;;;;;;;;;;;;-1.88;100.00;98560.34;10432181;28;19918;-81
2022/03/13 00:40:18;;;;;;;;;;;;;;;-1.99;100.00;98562.00;10365793;28;19928;-79
2022/03/13 00:45:21;;;;;;;;;;;;;;;-2.01;100.00;98562.22;10410851;28;19934;-81
2022/03/13 00:50:22;;;;;;;;;;;;;;;-2.13;100.00;98566.72;10415401;28;19913;-83
2022/03/13 00:55:25;;;;;;;;;;;;;;;-2.17;100.00;98570.06;10424118;28;19933;-83
2022/03/13 01:00:25;;;;;;;;;;;;;;;-2.20;100.00;98571.28;10425137;28;19933;-81
2022/03/13 01:05:27;;;;;;;;;;;;;;;-2.31;100.00;98565.03;10427818;28;19944;-80
2022/03/13 01:10:28;;;;;;;;;;;;;;;-2.39;100.00;98568.03;10418847;28;19925;-80
2022/03/13 01:15:29;;;;;;;;;;;;;;;-2.46;100.00;98563.94;10424875;28;19909;-78
2022/03/13 01:20:31;;;;;;;;;;;;;;;-2.53;100.00;98560.63;10418973;28;19956;-81
2022/03/13 01:25:33;;;;;;;;;;;;;;;-2.59;100.00;98559.72;10426195;28;19953;-82
2022/03/13 01:30:33;;;;;;;;;;;;;;;-2.65;100.00;98552.75;10384221;28;19913;-84
2022/03/13 01:35:34;;;;;;;;;;;;;;;-2.74;100.00;98557.59;10442770;28;19954;-81
2022/03/13 01:40:35;;;;;;;;;;;;;;;-2.75;100.00;98555.16;10435998;28;19941;-80
2022/03/13 01:45:36;;;;;;;;;;;;;;;-2.90;100.00;98543.31;10431312;28;19972;-80
2022/03/13 01:50:38;;;;;;;;;;;;;;;-2.95;100.00;98542.38;10424304;28;19979;-80
2022/03/13 01:55:38;;;;;;;;;;;;;;;-2.91;100.00;98541.72;10401399;28;19939;-80
2022/03/13 02:00:39;;;;;;;;;;;;;;;-2.84;100.00;98530.28;10423844;28;19921;-79
2022/03/13 02:05:44;;;;;;;;;;;;;;;-2.64;97.97;98536.78;10407162;28;19929;-79
2022/03/13 02:10:45;;;;;;;;;;;;;;;-2.49;92.27;98536.28;10413333;28;19930;-78
2022/03/13 02:15:46;;;;;;;;;;;;;;;-2.41;90.34;98535.94;10414534;28;19930;-79
2022/03/13 02:20:46;;;;;;;;;;;;;;;-2.51;96.07;98540.19;10401635;28;19930;-80
2022/03/13 02:25:48;;;;;;;;;;;;;;;-2.67;99.25;98526.72;10377714;28;20002;-80
2022/03/13 02:30:51;;;;;;;;;;;;;;;-2.78;100.00;98524.13;10373295;28;19993;-80
2022/03/13 02:35:53;;;;;;;;;;;;;;;-2.87;100.00;98524.47;10373583;28;20293;-77
2022/03/13 02:40:54;;;;;;;;;;;;;;;-2.88;100.00;98522.06;10377820;28;19981;-79
2022/03/13 02:45:54;;;;;;;;;;;;;;;-2.93;100.00;98516.69;10375170;28;20285;-80
2022/03/13 02:50:54;;;;;;;;;;;;;;;-3.04;100.00;98517.50;10408661;28;19925;-78
2022/03/13 02:55:56;;;;;;;;;;;;;;;-3.04;100.00;98514.88;10408982;28;19960;-80
2022/03/13 03:00:58;;;;;;;;;;;;;;;-2.84;93.02;98509.25;10402894;28;19937;-79
2022/03/13 03:05:58;;;;;;;;;;;;;;;-2.63;85.89;98508.69;10372929;28;20427;-79
2022/03/13 03:10:58;;;;;;;;;;;;;;;-2.45;80.06;98505.91;10364790;28;19950;-81
2022/03/13 03:15:59;;;;;;;;;;;;;;;-2.41;78.53;98511.47;10360053;28;19929;-79
2022/03/13 03:21:31;;;;;;;;;;;;;;;-2.36;75.73;98516.84;10322599;28;19964;-79
2022/03/13 03:26:33;;;;;;;;;;;;;;;-2.33;74.51;98519.00;10311738;28;19968;-78
2022/03/13 03:31:36;;;;;;;;;;;;;;;-2.32;75.03;98517.97;10313371;28;19941;-78
2022/03/13 03:36:41;;;;;;;;;;;;;;;-2.33;71.40;98522.41;10314733;28;19936;-78
2022/03/13 03:41:45;;;;;;;;;;;;;;;-2.38;69.14;98516.25;10315473;28;20011;-81
2022/03/13 03:46:46;;;;;;;;;;;;;;;-2.44;69.88;98522.47;10334774;28;20298;-82
2022/03/13 03:51:47;;;;;;;;;;;;;;;-2.52;70.89;98521.00;10347680;28;19930;-80
2022/03/13 03:56:47;;;;;;;;;;;;;;;-2.49;68.40;98527.59;10330559;28;20020;-78
2022/03/13 04:01:49;;;;;;;;;;;;;;;-2.60;67.57;98510.84;10306788;28;19929;-78
2022/03/13 04:13:01;;;;;;;;;;;;;;;-2.73;67.44;98506.66;10317405;28;19929;-78
2022/03/13 04:18:02;;;;;;;;;;;;;;;-2.77;77.88;98513.38;10318370;28;19932;-78
2022/03/13 04:23:05;;;;;;;;;;;;;;;-2.95;76.82;98516.94;10307024;28;19936;-79
2022/03/13 04:28:08;;;;;;;;;;;;;;;-3.03;82.28;98521.72;10317667;28;19929;-80
2022/03/13 04:33:09;;;;;;;;;;;;;;;-3.09;84.57;98533.16;10325924;28;19930;-80
2022/03/13 04:38:10;;;;;;;;;;;;;;;-3.10;90.21;98536.81;10341942;28;19948;-79
2022/03/13 04:43:11;;;;;;;;;;;;;;;-2.91;88.70;98538.31;10354676;28;19997;-80
2022/03/13 04:48:14;;;;;;;;;;;;;;;-3.04;86.58;98549.00;10358672;28;19926;-81
2022/03/13 04:53:15;;;;;;;;;;;;;;;-3.19;94.11;98550.28;10328513;28;19953;-80
2022/03/13 04:58:15;;;;;;;;;;;;;;;-3.37;100.00;98541.69;10328349;28;19930;-79
2022/03/13 05:03:15;;;;;;;;;;;;;;;-3.46;100.00;98547.28;10317639;28;19930;-78
2022/03/13 05:08:17;;;;;;;;;;;;;;;-3.45;90.10;98548.06;10329542;28;19937;-79
2022/03/13 05:13:18;;;;;;;;;;;;;;;-3.35;82.24;98556.19;10325049;28;20024;-79
2022/03/13 05:18:20;;;;;;;;;;;;;;;-3.33;87.26;98569.88;10335707;28;20001;-80
2022/03/13 05:23:21;;;;;;;;;;;;;;;-3.42;88.68;98565.97;10328075;28;19929;-79
2022/03/13 05:28:21;;;;;;;;;;;;;;;-3.45;90.11;98569.06;10335880;28;19981;-80
2022/03/13 05:33:22;;;;;;;;;;;;;;;-3.52;91.69;98570.97;10341528;28;25413;-80
2022/03/13 05:38:25;;;;;;;;;;;;;;;-3.57;95.50;98568.22;10363505;28;19920;-81
2022/03/13 05:43:29;;;;;;;;;;;;;;;-3.61;92.63;98577.56;10377186;28;19914;-79
2022/03/13 05:48:30;;;;;;;;;;;;;;;-3.43;80.19;98574.88;10373609;28;19930;-80
2022/03/13 05:53:30;;;;;;;;;;;;;;;-3.23;82.58;98590.31;10373094;28;19922;-79
2022/03/13 05:58:31;;;;;;;;;;;;;;;-3.09;74.33;98583.84;10349724;28;19981;-79
2022/03/13 06:03:32;;;;;;;;;;;;;;;-2.83;68.20;98584.41;10339638;28;19974;-81
2022/03/13 06:08:34;;;;;;;;;;;;;;;-2.42;68.86;98575.59;10342052;28;19976;-79
2022/03/13 06:13:34;;;;;;;;;;;;;;;-1.94;64.11;98579.69;10337268;28;19951;-81
2022/03/13 06:18:37;;;;;;;;;;;;;;;-1.81;62.67;98576.78;10326458;28;20377;-79
2022/03/13 06:23:37;;;;;;;;;;;;;;;-1.51;62.82;98589.69;10335411;28;19930;-80
2022/03/13 06:28:40;;;;;;;;;;;;;;;-1.26;60.09;98586.69;10349431;28;19941;-82
2022/03/13 06:33:43;;;;;;;;;;;;;;;-0.87;58.67;98593.63;10354915;28;19930;-80
2022/03/13 06:38:43;;;;;;;;;;;;;;;-0.60;59.40;98593.75;10363942;28;20025;-79
2022/03/13 06:43:43;;;;;;;;;;;;;;;-0.42;57.59;98589.25;10334295;28;19926;-79
2022/03/13 06:48:48;;;;;;;;;;;;;;;0.04;52.30;98590.63;10314687;28;19926;-82
2022/03/13 06:53:48;;;;;;;;;;;;;;;0.21;51.36;98596.63;10323947;28;19930;-80
2022/03/13 06:58:49;;;;;;;;;;;;;;;0.39;51.35;98597.31;10335909;28;19934;-77
2022/03/13 07:03:50;;;;;;;;;;;;;;;0.71;49.66;98603.44;10327254;28;19965;-79
2022/03/13 07:08:51;;;;;;;;;;;;;;;0.93;46.13;98606.03;10350590;28;19950;-80
2022/03/13 07:13:51;;;;;;;;;;;;;;;1.01;46.47;98605.56;10338366;28;19940;-77
2022/03/13 07:18:52;;;;;;;;;;;;;;;1.20;46.43;98605.97;10327714;28;19936;-80
2022/03/13 07:23:56;;;;;;;;;;;;;;;1.46;47.45;98614.84;10309478;28;20037;-79
2022/03/13 07:28:56;;;;;;;;;;;;;;;1.90;44.60;98596.03;10331382;28;19961;-77
2022/03/13 07:33:57;;;;;;;;;;;;;;;1.79;43.78;98600.50;10319218;28;19934;-79
2022/03/13 07:38:57;;;;;;;;;;;;;;;2.04;43.42;98589.22;10310951;28;19934;-78
2022/03/13 07:43:58;;;;;;;;;;;;;;;1.98;44.54;98585.75;10283208;28;19926;-74
2022/03/13 07:48:59;;;;;;;;;;;;;;;2.28;43.10;98592.97;10305638;28;19926;-75
2022/03/13 07:54:01;;;;;;;;;;;;;;;2.45;43.23;98592.75;10324343;28;19934;-74
2022/03/13 07:59:02;;;;;;;;;;;;;;;2.75;42.87;98596.53;10305906;28;19948;-74
2022/03/13 08:04:04;;;;;;;;;;;;;;;2.78;40.25;98593.34;10313232;28;20467;-74
2022/03/13 08:09:08;;;;;;;;;;;;;;;2.97;40.88;98588.31;10314496;28;19949;-74
2022/03/13 08:14:09;;;;;;;;;;;;;;;2.87;41.00;98593.63;10321304;28;19948;-74
2022/03/13 08:19:10;;;;;;;;;;;;;;;3.11;40.00;98592.03;10316432;28;19983;-76
2022/03/13 08:24:15;;;;;;;;;;;;;;;3.47;39.25;98598.06;10312736;28;19930;-74
2022/03/13 08:29:17;;;;;;;;;;;;;;;3.65;39.02;98596.69;10296618;28;19937;-75
2022/03/13 08:34:17;;;;;;;;;;;;;;;4.04;37.61;98591.53;10299965;28;19926;-74
2022/03/13 08:39:19;;;;;;;;;;;;;;;4.15;36.62;98585.13;10333360;28;19991;-75
2022/03/13 08:44:20;;;;;;;;;;;;;;;4.02;34.92;98576.94;10313062;28;19984;-75
2022/03/13 08:49:21;;;;;;;;;;;;;;;4.34;35.44;98585.28;10312454;28;19934;-75
2022/03/13 08:54:22;;;;;;;;;;;;;;;4.75;38.27;98577.81;10314947;28;19934;-77
2022/03/13 08:59:23;;;;;;;;;;;;;;;5.22;36.91;98584.38;10314992;28;20006;-76
2022/03/13 09:04:27;;;;;;;;;;;;;;;5.48;36.21;98570.81;10303409;28;19930;-74
2022/03/13 09:09:30;;;;;;;;;;;;;;;5.75;34.46;98573.72;10323508;28;19929;-75
2022/03/13 09:14:34;;;;;;;;;;;;;;;5.79;33.47;98572.09;10320541;28;19961;-76
2022/03/13 09:19:35;;;;;;;;;;;;;;;5.83;34.80;98567.75;10313734;28;20000;-75
2022/03/13 09:24:35;;;;;;;;;;;;;;;6.14;32.24;98572.78;10321881;28;19958;-76
2022/03/13 09:29:35;;;;;;;;;;;;;;;6.10;31.39;98569.06;10316426;28;19936;-78
2022/03/13 09:34:36;;;;;;;;;;;;;;;6.64;32.45;98567.81;10332576;28;20008;-76
2022/03/13 09:39:37;;;;;;;;;;;;;;;6.65;31.26;98564.06;10341387;28;19930;-80
2022/03/13 09:44:37;;;;;;;;;;;;;;;6.91;33.83;98567.13;10364943;28;19929;-79
2022/03/13 09:49:41;;;;;;;;;;;;;;;6.98;31.17;98562.22;10338121;28;19926;-79
2022/03/13 09:54:45;;;;;;;;;;;;;;;7.14;31.51;98563.53;10361165;28;19934;-79
2022/03/13 09:59:47;;;;;;;;;;;;;;;7.22;30.60;98557.50;10347600;28;19945;-79
2022/03/13 10:04:47;;;;;;;;;;;;;;;7.69;32.11;98560.94;10349863;28;20381;-80
2022/03/13 10:09:51;;;;;;;;;;;;;;;7.85;30.32;98545.38;10313914;28;20074;-77
2022/03/13 10:15:03;;;;;;;;;;;;;;;8.19;31.84;98536.94;10341775;28;19969;-78
2022/03/13 10:20:16;;;;;;;;;;;;;;;8.63;28.86;98528.22;10348873;28;20005;-78
2022/03/13 10:25:33;;;;;;;;;;;;;;;8.81;30.85;98524.56;10322108;28;19965;-82
2022/03/13 10:30:36;;;;;;;;;;;;;;;9.18;28.57;98513.75;10336139;28;19930;-79
2022/03/13 10:35:37;;;;;;;;;;;;;;;9.34;28.32;98518.41;10336744;28;19922;-81
2022/03/13 10:40:37;;;;;;;;;;;;;;;9.43;25.82;98512.31;10341425;28;19933;-79
2022/03/13 10:45:42;;;;;;;;;;;;;;;9.77;26.02;98506.25;10339751;28;20028;-79
2022/03/13 10:50:47;;;;;;;;;;;;;;;10.69;27.20;98501.63;10297767;28;20357;-78
2022/03/13 10:56:08;;;;;;;;;;;;;;;11.15;25.22;98498.19;10327698;28;19934;-79
2022/03/13 11:01:09;;;;;;;;;;;;;;;11.62;27.59;98495.50;10333069;28;19929;-78
2022/03/13 11:06:10;;;;;;;;;;;;;;;11.67;25.90;98488.03;10338188;28;19940;-79
2022/03/13 11:11:34;;;;;;;;;;;;;;;11.84;25.40;98489.09;10326401;28;20330;-81
2022/03/13 11:16:34;;;;;;;;;;;;;;;12.37;26.72;98485.69;10324682;28;19925;-80
2022/03/13 11:21:42;;;;;;;;;;;;;;;12.60;26.61;98483.44;10320331;28;19985;-78
2022/03/13 11:26:44;;;;;;;;;;;;;;;11.98;23.77;98476.19;10332107;28;20039;-79
2022/03/13 11:31:47;;;;;;;;;;;;;;;12.31;23.06;98464.69;10341361;28;19929;-82
2022/03/13 11:36:50;;;;;;;;;;;;;;;12.76;27.02;98454.78;10339158;28;19932;-80
2022/03/13 11:41:51;;;;;;;;;;;;;;;12.51;24.87;98447.72;10319944;28;19930;-84
2022/03/13 11:46:58;;;;;;;;;;;;;;;12.80;24.81;98441.41;10327276;28;19977;-82
2022/03/13 11:52:12;;;;;;;;;;;;;;;12.88;23.70;98440.53;10326611;28;19913;-82
2022/03/13 11:57:14;;;;;;;;;;;;;;;13.06;23.88;98425.75;10349904;28;19936;-83
2022/03/13 12:02:34;;;;;;;;;;;;;;;13.08;25.60;98420.84;10356073;28;19929;-82
2022/03/13 12:07:51;;;;;;;;;;;;;;;13.59;25.59;98423.22;10353277;28;19941;-81
2022/03/13 12:13:05;;;;;;;;;;;;;;;14.32;25.04;98414.94;10327267;28;19930;-80
2022/03/13 12:18:18;;;;;;;;;;;;;;;14.21;23.32;98392.25;10340337;28;19973;-81
2022/03/13 12:23:27;;;;;;;;;;;;;;;13.91;22.41;98389.88;10360791;28;20383;-81
2022/03/13 12:28:33;;;;;;;;;;;;;;;14.29;24.99;98387.84;10351806;28;19930;-81
2022/03/13 12:33:39;;;;;;;;;;;;;;;14.27;25.10;98387.41;10326140;28;19957;-80
2022/03/13 12:38:43;;;;;;;;;;;;;;;13.90;22.52;98371.34;10332469;28;19926;-81
2022/03/13 12:43:48;;;;;;;;;;;;;;;14.07;24.42;98371.03;10329153;28;19938;-80
2022/03/13 12:49:12;;;;;;;;;;;;;;;15.31;23.68;98367.28;10358025;28;19979;-80
2022/03/13 12:54:17;;;;;;;;;;;;;;;15.18;22.13;98363.91;10356171;28;19926;-80
2022/03/13 12:59:48;;;;;;;;;;;;;;;15.97;22.53;98360.19;10353336;28;20257;-80
2022/03/13 13:05:01;;;;;;;;;;;;;;;15.99;22.91;98349.78;10349783;28;19930;-81
2022/03/13 13:10:07;;;;;;;;;;;;;;;16.43;22.86;98350.25;10346225;28;19953;-81
2022/03/13 13:15:11;;;;;;;;;;;;;;;16.88;21.00;98352.22;10286137;28;19927;-81
2022/03/13 13:20:22;;;;;;;;;;;;;;;18.06;21.89;98341.13;10256880;28;19933;-79
2022/03/13 13:25:27;;;;;;;;;;;;;;;18.22;20.20;98330.03;10343098;28;19926;-82
2022/03/13 13:30:34;;;;;;;;;;;;;;;18.12;19.19;98336.16;10343197;28;19926;-80
2022/03/13 13:35:35;;;;;;;;;;;;;;;18.20;20.50;98337.78;10312278;28;19910;-82
2022/03/13 13:40:38;;;;;;;;;;;;;;;18.32;19.68;98334.81;10330703;28;19926;-79
2022/03/13 13:45:43;;;;;;;;;;;;;;;18.92;19.55;98331.88;10351793;28;19926;-82
2022/03/13 13:50:44;;;;;;;;;;;;;;;17.46;21.21;98330.22;10343053;28;19993;-81
2022/03/13 13:55:49;;;;;;;;;;;;;;;17.32;18.64;98330.06;10334177;28;19922;-82
2022/03/13 14:00:49;;;;;;;;;;;;;;;17.17;21.92;98330.97;10332860;28;19937;-82
2022/03/13 14:05:50;;;;;;;;;;;;;;;16.64;21.00;98322.75;10484000;23;19909;-87
2022/03/13 14:10:52;;;;;;;;;;;;;;;17.03;22.47;98323.44;10353957;28;19927;-82
2022/03/13 14:15:53;;;;;;;;;;;;;;;16.95;21.68;98319.81;10345404;28;19922;-85
2022/03/13 14:20:54;;;;;;;;;;;;;;;16.10;21.68;98313.69;10331136;28;19926;-82
2022/03/13 14:25:55;;;;;;;;;;;;;;;16.04;23.42;98309.69;10380982;28;19983;-84
2022/03/13 14:30:56;;;;;;;;;;;;;;;15.83;22.85;98301.16;10354143;28;20076;-80
2022/03/13 14:35:59;;;;;;;;;;;;;;;15.34;22.20;98307.06;10334680;28;20141;-80
2022/03/13 14:41:00;;;;;;;;;;;;;;;15.09;23.64;98309.22;10332363;28;20027;-78
2022/03/13 14:46:03;;;;;;;;;;;;;;;14.60;25.10;98309.59;10329660;28;19930;-78
2022/03/13 14:51:04;;;;;;;;;;;;;;;14.23;23.42;98301.69;10323007;28;19965;-81
2022/03/13 14:56:06;;;;;;;;;;;;;;;14.02;24.67;98301.13;10328718;28;19966;-81
2022/03/13 15:01:07;;;;;;;;;;;;;;;13.77;25.01;98305.84;10324420;28;20036;-80
2022/03/13 15:06:08;;;;;;;;;;;;;;;13.70;23.68;98316.41;10359207;23;19960;-80
2022/03/13 15:11:08;;;;;;;;;;;;;;;13.56;25.58;98313.34;10318862;28;19937;-80
2022/03/13 15:16:08;;;;;;;;;;;;;;;13.63;24.24;98308.94;10337044;28;19985;-79
2022/03/13 15:21:10;;;;;;;;;;;;;;;13.30;25.59;98311.81;10306145;28;19957;-79
2022/03/13 15:26:12;;;;;;;;;;;;;;;13.14;25.12;98305.50;10343962;28;19972;-80
2022/03/13 15:36:45;;;;;;;;;;;;;;;12.90;25.49;98311.72;10310870;28;20282;-80
2022/03/13 15:41:46;;;;;;;;;;;;;;;12.75;26.30;98321.22;10325582;28;19926;-83
2022/03/13 15:46:48;;;;;;;;;;;;;;;12.68;26.48;98312.13;10312184;28;20432;-82
2022/03/13 15:51:52;;;;;;;;;;;;;;;12.56;26.32;98329.06;10318837;28;19953;-81
2022/03/13 15:56:52;;;;;;;;;;;;;;;12.39;26.13;98321.19;10323795;28;20304;-82
2022/03/13 16:01:53;;;;;;;;;;;;;;;12.21;26.50;98323.25;10320397;28;19930;-89
2022/03/13 16:06:54;;;;;;;;;;;;;;;12.08;25.89;98327.03;10330308;23;19930;-82
2022/03/13 16:11:56;;;;;;;;;;;;;;;12.04;27.74;98331.50;10311487;28;19926;-80
2022/03/13 16:16:58;;;;;;;;;;;;;;;11.75;27.04;98324.28;10328027;28;19981;-82
2022/03/13 16:22:05;;;;;;;;;;;;;;;11.69;26.25;98323.69;10313107;28;19925;-80
2022/03/13 16:27:09;;;;;;;;;;;;;;;11.52;27.58;98343.44;10320004;28;19980;-83
2022/03/13 16:32:12;;;;;;;;;;;;;;;11.45;27.75;98340.50;10299610;28;19981;-79
2022/03/13 16:37:13;;;;;;;;;;;;;;;11.25;27.02;98350.09;10306573;28;20031;-83
2022/03/13 16:42:14;;;;;;;;;;;;;;;11.10;27.33;98351.44;10318005;28;19964;-81
2022/03/13 16:47:14;;;;;;;;;;;;;;;11.09;26.48;98351.75;10319602;28;19926;-81
2022/03/13 16:52:16;;;;;;;;;;;;;;;10.74;27.81;98353.81;10310325;28;19930;-81
2022/03/13 16:57:18;;;;;;;;;;;;;;;10.48;28.00;98346.63;10292177;28;19993;-81
2022/03/13 17:02:32;;;;;;;;;;;;;;;10.24;28.72;98344.50;10310529;28;19985;-82
2022/03/13 17:07:36;;;;;;;;;;;;;;;10.15;29.32;98358.97;10379123;23;19926;-82
2022/03/13 17:12:38;;;;;;;;;;;;;;;9.90;28.81;98358.69;10383267;28;19913;-83
2022/03/13 17:17:43;;;;;;;;;;;;;;;9.77;29.34;98353.47;10401830;28;19997;-80
2022/03/13 17:22:43;;;;;;;;;;;;;;;9.56;28.80;98372.06;10401117;28;19917;-85
2022/03/13 17:27:43;;;;;;;;;;;;;;;9.33;29.54;98376.75;10410515;28;19938;-83
2022/03/13 17:32:46;;;;;;;;;;;;;;;9.10;30.26;98384.88;10415348;28;19925;-77
2022/03/13 17:37:49;;;;;;;;;;;;;;;9.07;29.92;98374.00;10407224;28;19914;-79
2022/03/13 17:43:14;;;;;;;;;;;;;;;8.80;30.21;98377.69;10389616;28;19941;-79
2022/03/13 17:48:14;;;;;;;;;;;;;;;8.48;31.06;98384.13;10372837;28;19930;-81
2022/03/13 17:53:15;;;;;;;;;;;;;;;8.32;31.32;98381.03;10373429;28;19949;-83
2022/03/13 17:58:15;;;;;;;;;;;;;;;8.33;31.65;98379.16;10426063;28;19941;-83
2022/03/13 18:08:39;;;;;;;;;;;;;;;8.05;33.05;98389.97;10417518;28;19925;-80
2022/03/13 18:13:40;;;;;;;;;;;;;;;7.89;33.05;98394.06;10405602;28;19925;-79
2022/03/13 18:18:45;;;;;;;;;;;;;;;7.64;34.19;98400.75;10415577;28;19925;-81
2022/03/13 18:23:46;;;;;;;;;;;;;;;7.42;35.06;98398.81;10424579;28;19914;-79
2022/03/13 18:28:46;;;;;;;;;;;;;;;7.50;33.91;98390.13;10419741;28;19925;-78
2022/03/13 18:33:47;;;;;;;;;;;;;;;7.27;34.77;98396.47;10425318;28;19925;-77
2022/03/13 18:38:48;;;;;;;;;;;;;;;7.11;35.41;98402.09;10425454;28;19923;-79
2022/03/13 18:43:51;;;;;;;;;;;;;;;6.77;36.50;98399.81;10425935;28;19926;-77
2022/03/13 18:48:56;;;;;;;;;;;;;;;6.63;37.60;98390.22;10425024;28;19929;-77
2022/03/13 18:53:56;;;;;;;;;;;;;;;6.54;36.81;98396.22;10410505;28;20229;-79
2022/03/13 18:58:59;;;;;;;;;;;;;;;6.42;37.05;98403.91;10395200;28;20279;-80
2022/03/13 19:04:00;;;;;;;;;;;;;;;6.23;36.52;98411.13;10405131;28;19929;-83
2022/03/13 19:09:00;;;;;;;;;;;;;;;6.10;35.89;98409.19;10405451;28;19929;-79
2022/03/13 19:14:02;;;;;;;;;;;;;;;5.89;37.70;98414.81;10388992;28;19933;-80
2022/03/13 19:19:12;;;;;;;;;;;;;;;5.79;36.38;98419.50;10396415;28;19936;-80
2022/03/13 19:24:12;;;;;;;;;;;;;;;5.66;36.63;98424.44;10403166;28;20388;-80
2022/03/13 19:29:15;;;;;;;;;;;;;;;5.57;36.75;98423.47;10393077;28;20228;-80
2022/03/13 19:34:16;;;;;;;;;;;;;;;5.54;37.10;98424.06;10384668;28;20426;-80
2022/03/13 19:39:16;;;;;;;;;;;;;;;5.48;38.68;98424.41;10402819;28;19933;-82
2022/03/13 19:44:18;;;;;;;;;;;;;;;5.37;36.18;98434.41;10421392;28;20288;-80
2022/03/13 19:49:20;;;;;;;;;;;;;;;5.44;38.36;98429.53;10421368;28;19936;-80
2022/03/13 19:54:22;;;;;;;;;;;;;;;5.24;37.14;98432.44;10416404;28;19936;-79
2022/03/13 19:59:27;;;;;;;;;;;;;;;5.08;37.81;98445.09;10424559;28;20020;-81
2022/03/13 20:04:34;;;;;;;;;;;;;;;4.92;38.34;98446.34;10403609;28;20012;-81
2022/03/13 20:09:38;;;;;;;;;;;;;;;4.69;39.74;98440.72;10407132;28;19934;-81
2022/03/13 20:14:43;;;;;;;;;;;;;;;4.40;43.51;98442.56;10406814;28;20023;-82
2022/03/13 20:19:45;;;;;;;;;;;;;;;4.15;42.67;98449.66;10401250;28;20454;-79
2022/03/13 20:24:48;;;;;;;;;;;;;;;3.89;46.02;98459.63;10403388;28;19935;-83
2022/03/13 20:29:48;;;;;;;;;;;;;;;3.63;46.44;98456.31;10404763;28;19926;-82
2022/03/13 20:34:51;;;;;;;;;;;;;;;3.42;48.60;98458.28;10389555;28;19956;-81
2022/03/13 20:39:52;;;;;;;;;;;;;;;3.31;49.49;98461.25;10421335;28;19944;-81
2022/03/13 20:44:53;;;;;;;;;;;;;;;3.13;51.05;98462.63;10421471;28;19985;-82
2022/03/13 20:49:54;;;;;;;;;;;;;;;2.93;54.68;98468.78;10408457;28;19974;-83
2022/03/13 20:54:54;;;;;;;;;;;;;;;2.79;60.27;98473.03;10414027;28;19960;-82
2022/03/13 20:59:55;;;;;;;;;;;;;;;2.63;62.94;98474.09;10410206;28;19956;-82
2022/03/13 21:04:55;;;;;;;;;;;;;;;2.37;68.68;98471.44;10424358;28;19925;-82
2022/03/13 21:10:00;;;;;;;;;;;;;;;2.29;68.35;98479.94;10421395;28;19929;-82
2022/03/13 21:15:01;;;;;;;;;;;;;;;2.14;65.75;98479.91;10422021;28;19924;-82
2022/03/13 21:20:04;;;;;;;;;;;;;;;1.98;68.41;98479.06;10427823;28;20003;-83
2022/03/13 21:25:07;;;;;;;;;;;;;;;1.81;65.06;98487.22;10406858;28;20455;-80
2022/03/13 21:30:09;;;;;;;;;;;;;;;1.75;68.44;98495.44;10398252;28;19948;-80
2022/03/13 21:35:10;;;;;;;;;;;;;;;1.57;73.99;98499.34;10398754;28;20781;-81
2022/03/13 21:40:11;;;;;;;;;;;;;;;1.50;71.22;98504.06;10432734;28;19941;-82
2022/03/13 21:45:13;;;;;;;;;;;;;;;1.42;74.26;98513.28;10407723;28;19956;-82
2022/03/13 21:50:14;;;;;;;;;;;;;;;1.33;76.25;98507.69;10405951;28;19929;-81
2022/03/13 21:55:15;;;;;;;;;;;;;;;1.23;76.34;98512.13;10399385;28;19996;-82
2022/03/13 22:00:20;;;;;;;;;;;;;;;1.08;82.18;98515.47;10451282;28;19980;-82
2022/03/13 22:05:21;;;;;;;;;;;;;;;0.92;84.60;98511.16;10403193;28;19929;-81
2022/03/13 22:10:21;;;;;;;;;;;;;;;0.83;84.79;98511.63;10415693;28;20703;-79
2022/03/13 22:15:22;;;;;;;;;;;;;;;0.81;85.85;98510.25;10410717;28;19990;-81
2022/03/13 22:20:23;;;;;;;;;;;;;;;0.70;84.06;98511.25;10402786;28;19956;-82
2022/03/13 22:25:23;;;;;;;;;;;;;;;0.63;92.44;98503.53;10400674;28;19982;-80
2022/03/13 22:30:24;;;;;;;;;;;;;;;0.55;90.94;98511.94;10403142;28;20031;-81
2022/03/13 22:35:26;;;;;;;;;;;;;;;0.48;88.55;98508.69;10391161;28;19952;-81
2022/03/13 22:40:27;;;;;;;;;;;;;;;0.40;89.64;98514.44;10394785;28;20307;-80
2022/03/13 22:45:28;;;;;;;;;;;;;;;0.30;92.23;98517.78;10414171;28;19925;-82
2022/03/13 22:55:53;;;;;;;;;;;;;;;0.20;93.11;98530.88;10416540;28;19929;-83
2022/03/13 23:00:54;;;;;;;;;;;;;;;0.16;99.01;98533.22;10417963;28;20370;-82
2022/03/13 23:05:55;;;;;;;;;;;;;;;0.03;95.63;98532.81;10437283;23;19936;-81
2022/03/13 23:10:58;;;;;;;;;;;;;;;-0.07;98.82;98539.56;10448990;28;19925;-81
2022/03/13 23:15:59;;;;;;;;;;;;;;;-0.10;98.72;98537.41;10448022;28;19932;-81
2022/03/13 23:21:01;;;;;;;;;;;;;;;-0.12;100.00;98549.25;10437943;28;19929;-83
2022/03/13 23:26:12;;;;;;;;;;;;;;;-0.24;98.31;98544.13;10437062;28;19937;-83
2022/03/13 23:31:18;;;;;;;;;;;;;;;-0.32;100.00;98545.34;10404258;28;20459;-82
2022/03/13 23:36:26;;;;;;;;;;;;;;;-0.33;100.00;98529.78;10435927;28;19936;-81
2022/03/13 23:41:29;;;;;;;;;;;;;;;-0.47;100.00;98539.09;10449501;28;19928;-82
2022/03/13 23:46:29;;;;;;;;;;;;;;;-0.47;100.00;98533.81;10456946;28;19924;-82
2022/03/13 23:51:31;;;;;;;;;;;;;;;-0.54;100.00;98551.66;10437327;28;19929;-83
2022/03/13 23:56:35;;;;;;;;;;;;;;;-0.54;100.00;98554.31;10440492;28;19929;-84
